createdAt,value
2018-09-02T00:01:33.754Z,5.05
2018-09-02T00:04:02.007Z,14.33
2018-09-02T00:06:30.220Z,7.62
2018-09-02T00:08:58.529Z,7.22
2018-09-02T00:11:26.892Z,9.35
2018-09-02T00:13:55.133Z,7.90
2018-09-02T00:16:23.400Z,6.53
2018-09-02T00:18:51.715Z,4.67
2018-09-02T00:21:19.981Z,6.17
2018-09-02T00:23:48.260Z,7.62
2018-09-02T00:26:16.558Z,6.08
2018-09-02T00:28:44.817Z,7.72
2018-09-02T00:31:13.086Z,7.05
2018-09-02T00:33:41.355Z,9.75
2018-09-02T00:36:09.614Z,5.40
2018-09-02T00:38:37.880Z,11.15
2018-09-02T00:41:06.177Z,8.43
2018-09-02T00:43:34.461Z,7.42
2018-09-02T00:46:09.245Z,8.43
2018-09-02T00:48:37.503Z,7.17
2018-09-02T00:51:05.828Z,9.85
2018-09-02T00:53:34.150Z,7.30
2018-09-02T00:56:02.426Z,5.85
2018-09-02T00:58:30.703Z,8.68
2018-09-02T01:00:58.920Z,7.67
2018-09-02T01:03:27.322Z,8.23
2018-09-02T01:05:55.597Z,16.55
2018-09-02T01:08:23.894Z,8.40
2018-09-02T01:10:52.174Z,7.45
2018-09-02T01:13:20.411Z,5.45
2018-09-02T01:15:48.694Z,11.35
2018-09-02T01:18:17.336Z,8.40
2018-09-02T01:20:45.659Z,8.38
2018-09-02T01:23:14.048Z,7.30
2018-09-02T01:25:42.287Z,6.87
2018-09-02T01:28:10.551Z,11.85
2018-09-02T01:30:38.910Z,16.87
2018-09-02T01:33:07.524Z,8.13
2018-09-02T01:35:35.794Z,7.30
2018-09-02T01:38:05.120Z,7.50
2018-09-02T01:40:34.274Z,7.62
2018-09-02T01:43:02.743Z,7.80
2018-09-02T01:45:31.316Z,10.38
2018-09-02T01:47:59.728Z,10.68
2018-09-02T01:50:28.100Z,8.03
2018-09-02T01:52:56.382Z,12.50
2018-09-02T01:55:24.634Z,8.60
2018-09-02T01:57:53.011Z,7.40
2018-09-02T02:00:21.262Z,12.00
2018-09-02T02:02:49.928Z,9.18
2018-09-02T02:05:18.181Z,9.60
2018-09-02T02:07:46.476Z,11.97
2018-09-02T02:10:14.777Z,9.05
2018-09-02T02:12:43.058Z,9.13
2018-09-02T02:15:11.348Z,6.53
2018-09-02T02:17:39.609Z,9.45
2018-09-02T02:20:07.960Z,15.23
2018-09-02T02:22:36.370Z,12.70
2018-09-02T02:25:04.718Z,9.08
2018-09-02T02:27:33.034Z,10.18
2018-09-02T02:30:01.345Z,9.48
2018-09-02T02:32:29.645Z,11.05
2018-09-02T02:34:57.928Z,10.93
2018-09-02T02:37:26.180Z,11.18
2018-09-02T02:39:54.411Z,10.72
2018-09-02T02:42:22.720Z,10.55
2018-09-02T02:44:50.941Z,8.88
2018-09-02T02:47:19.263Z,10.28
2018-09-02T02:49:47.857Z,9.45
2018-09-02T02:52:16.198Z,10.10
2018-09-02T02:54:44.482Z,12.07
2018-09-02T02:57:12.827Z,15.60
2018-09-02T02:59:41.177Z,8.53
2018-09-02T03:02:09.479Z,10.82
2018-09-02T03:04:40.729Z,7.85
2018-09-02T03:07:09.807Z,9.25
2018-09-02T03:09:38.102Z,10.60
2018-09-02T03:12:06.405Z,11.57
2018-09-02T03:14:34.685Z,10.45
2018-09-02T03:17:02.990Z,17.55
2018-09-02T03:19:31.338Z,12.90
2018-09-02T03:21:59.623Z,12.13
2018-09-02T03:24:27.980Z,16.82
2018-09-02T03:26:56.244Z,11.57
2018-09-02T03:29:24.489Z,9.70
2018-09-02T03:31:52.750Z,12.23
2018-09-02T03:34:21.015Z,10.38
2018-09-02T03:36:49.366Z,11.60
2018-09-02T03:39:17.745Z,13.95
2018-09-02T03:41:46.084Z,10.65
2018-09-02T03:44:14.357Z,12.18
2018-09-02T03:46:49.120Z,13.60
2018-09-02T03:49:17.423Z,13.53
2018-09-02T03:51:45.820Z,13.15
2018-09-02T03:54:14.076Z,10.48
2018-09-02T03:56:42.351Z,11.50
2018-09-02T03:59:10.720Z,12.15
2018-09-02T04:01:39.035Z,11.12
2018-09-02T04:04:07.329Z,11.65
2018-09-02T04:06:35.700Z,12.10
2018-09-02T04:09:06.669Z,13.85
2018-09-02T04:11:34.923Z,13.00
2018-09-02T04:14:03.221Z,14.47
2018-09-02T04:16:31.503Z,12.25
2018-09-02T04:18:59.740Z,9.43
2018-09-02T04:21:28.018Z,18.20
2018-09-02T04:23:56.452Z,10.35
2018-09-02T04:26:24.736Z,10.45
2018-09-02T04:28:53.047Z,12.13
2018-09-02T04:31:21.320Z,12.03
2018-09-02T04:33:49.677Z,13.70
2018-09-02T04:36:17.884Z,17.17
2018-09-02T04:38:46.142Z,16.95
2018-09-02T04:41:14.470Z,14.30
2018-09-02T04:43:42.755Z,15.53
2018-09-02T04:46:11.041Z,18.73
2018-09-02T04:48:39.294Z,15.58
2018-09-02T04:51:07.608Z,13.68
2018-09-02T04:53:35.897Z,16.93
2018-09-02T04:56:04.178Z,13.45
2018-09-02T04:58:32.491Z,19.75
2018-09-02T05:01:00.789Z,14.90
2018-09-02T05:03:29.130Z,13.55
2018-09-02T05:05:57.398Z,14.63
2018-09-02T05:08:25.663Z,13.15
2018-09-02T05:10:53.917Z,14.47
2018-09-02T05:13:22.188Z,14.35
2018-09-02T05:15:50.509Z,16.45
2018-09-02T05:18:18.841Z,16.95
2018-09-02T05:20:47.113Z,16.15
2018-09-02T05:23:15.430Z,19.98
2018-09-02T05:25:43.772Z,16.07
2018-09-02T05:28:12.030Z,15.55
2018-09-02T05:30:40.325Z,20.12
2018-09-02T05:33:08.686Z,16.15
2018-09-02T05:35:36.968Z,13.95
2018-09-02T05:38:05.573Z,15.23
2018-09-02T05:40:33.874Z,19.48
2018-09-02T05:43:02.124Z,12.60
2018-09-02T05:45:30.397Z,13.65
2018-09-02T05:47:58.661Z,17.52
2018-09-02T05:50:26.924Z,14.98
2018-09-02T05:52:55.178Z,17.80
2018-09-02T05:55:23.487Z,15.63
2018-09-02T05:57:51.766Z,12.60
2018-09-02T06:00:20.034Z,14.38
2018-09-02T06:02:48.337Z,13.62
2018-09-02T06:05:20.908Z,12.85
2018-09-02T06:07:49.144Z,14.93
2018-09-02T06:10:17.373Z,14.30
2018-09-02T06:12:45.646Z,11.12
2018-09-02T06:15:14.104Z,12.28
2018-09-02T06:17:42.600Z,13.80
2018-09-02T06:20:11.209Z,12.85
2018-09-02T06:22:39.469Z,14.28
2018-09-02T06:25:07.816Z,11.83
2018-09-02T06:27:36.064Z,10.32
2018-09-02T06:30:04.404Z,18.07
2018-09-02T06:32:32.656Z,12.78
2018-09-02T06:35:00.933Z,11.45
2018-09-02T06:37:29.204Z,9.63
2018-09-02T06:39:57.445Z,11.68
2018-09-02T06:42:25.702Z,10.28
2018-09-02T06:44:54.010Z,9.45
2018-09-02T06:47:22.301Z,9.25
2018-09-02T06:49:50.646Z,8.78
2018-09-02T06:52:19.012Z,8.50
2018-09-02T06:54:47.328Z,7.20
2018-09-02T06:57:15.583Z,7.97
2018-09-02T06:59:43.923Z,9.10
2018-09-02T07:02:12.196Z,7.35
2018-09-02T07:04:40.512Z,12.18
2018-09-02T07:07:08.790Z,8.45
2018-09-02T07:09:37.047Z,7.25
2018-09-02T07:12:05.286Z,9.70
2018-09-02T07:14:33.505Z,7.30
2018-09-02T07:17:01.813Z,9.88
2018-09-02T07:19:30.066Z,5.45
2018-09-02T07:21:58.323Z,6.05
2018-09-02T07:24:26.660Z,12.85
2018-09-02T07:26:54.960Z,9.90
2018-09-02T07:29:24.075Z,7.62
2018-09-02T07:31:52.360Z,6.12
2018-09-02T07:34:20.641Z,8.20
2018-09-02T07:36:48.896Z,6.12
2018-09-02T07:39:17.205Z,10.00
2018-09-02T07:41:46.518Z,7.47
2018-09-02T07:44:14.852Z,11.63
2018-09-02T07:46:42.969Z,7.10
2018-09-02T07:49:11.273Z,7.03
2018-09-02T07:51:39.523Z,6.12
2018-09-02T07:54:07.884Z,8.78
2018-09-02T07:56:36.150Z,6.60
2018-09-02T07:59:04.450Z,9.25
2018-09-02T08:01:32.768Z,7.65
2018-09-02T08:04:01.160Z,8.33
2018-09-02T08:06:29.488Z,5.75
2018-09-02T08:08:57.754Z,10.10
2018-09-02T08:11:26.006Z,7.33
2018-09-02T08:13:54.250Z,6.72
2018-09-02T08:16:22.556Z,4.58
2018-09-02T08:18:50.812Z,3.95
2018-09-02T08:21:19.083Z,4.80
2018-09-02T08:23:47.368Z,7.67
2018-09-02T08:26:15.627Z,9.75
2018-09-02T08:28:43.936Z,6.62
2018-09-02T08:31:12.152Z,4.58
2018-09-02T08:33:40.419Z,5.22
2018-09-02T08:36:08.772Z,6.28
2018-09-02T08:38:37.382Z,6.33
2018-09-02T08:41:05.722Z,9.10
2018-09-02T08:43:34.138Z,6.55
2018-09-02T08:46:02.516Z,7.35
2018-09-02T08:48:30.857Z,5.42
2018-09-02T08:50:59.069Z,5.70
2018-09-02T08:53:28.174Z,6.53
2018-09-02T08:55:56.441Z,8.35
2018-09-02T08:58:24.774Z,6.80
2018-09-02T09:00:53.089Z,6.53
2018-09-02T09:03:21.392Z,5.03
2018-09-02T09:05:49.687Z,7.60
2018-09-02T09:08:18.234Z,5.72
2018-09-02T09:10:46.509Z,8.25
2018-09-02T09:13:15.066Z,6.65
2018-09-02T09:15:43.502Z,5.58
2018-09-02T09:18:11.885Z,7.08
2018-09-02T09:20:40.530Z,8.95
2018-09-02T09:23:08.783Z,4.20
2018-09-02T09:25:37.052Z,4.37
2018-09-02T09:28:05.360Z,3.98
2018-09-02T09:30:33.610Z,4.15
2018-09-02T09:33:01.927Z,6.33
2018-09-02T09:35:30.268Z,6.58
2018-09-02T09:37:58.516Z,7.33
2018-09-02T09:40:26.761Z,3.33
2018-09-02T09:42:55.099Z,8.00
2018-09-02T09:45:23.407Z,3.72
2018-09-02T09:47:51.631Z,3.95
2018-09-02T09:50:19.926Z,3.72
2018-09-02T09:52:48.194Z,5.12
2018-09-02T09:55:16.821Z,3.98
2018-09-02T09:57:45.581Z,5.58
2018-09-02T10:00:17.464Z,3.22
2018-09-02T10:02:45.707Z,6.00
2018-09-02T10:05:14.017Z,4.40
2018-09-02T10:07:42.267Z,4.75
2018-09-02T10:10:10.510Z,4.05
2018-09-02T10:12:38.753Z,5.05
2018-09-02T10:15:07.005Z,7.80
2018-09-02T10:17:35.257Z,3.60
2018-09-02T10:20:03.551Z,3.50
2018-09-02T10:22:31.808Z,4.85
2018-09-02T10:25:00.085Z,5.62
2018-09-02T10:27:28.417Z,4.53
2018-09-02T10:29:56.648Z,5.40
2018-09-02T10:32:24.953Z,2.58
2018-09-02T10:34:53.386Z,3.42
2018-09-02T10:37:21.669Z,3.20
2018-09-02T10:39:49.907Z,3.22
2018-09-02T10:42:18.207Z,4.15
2018-09-02T10:44:46.471Z,3.40
2018-09-02T10:47:14.749Z,2.87
2018-09-02T10:49:43.088Z,4.12
2018-09-02T10:52:11.322Z,3.00
2018-09-02T10:54:39.588Z,3.58
2018-09-02T10:57:07.836Z,3.30
2018-09-02T10:59:36.147Z,4.95
2018-09-02T11:02:04.346Z,3.33
2018-09-02T11:04:32.642Z,6.70
2018-09-02T11:07:00.965Z,5.85
2018-09-02T11:09:29.278Z,2.83
2018-09-02T11:11:57.696Z,3.67
2018-09-02T11:14:25.952Z,3.75
2018-09-02T11:16:54.244Z,7.45
2018-09-02T11:19:22.576Z,3.27
2018-09-02T11:21:50.833Z,4.17
2018-09-02T11:24:19.072Z,4.47
2018-09-02T11:26:47.367Z,5.62
2018-09-02T11:29:15.662Z,7.58
2018-09-02T11:31:43.920Z,3.20
2018-09-02T11:34:12.208Z,7.47
2018-09-02T11:36:40.377Z,4.58
2018-09-02T11:39:09.141Z,3.12
2018-09-02T11:41:37.384Z,4.60
2018-09-02T11:44:05.906Z,3.17
2018-09-02T11:46:37.287Z,3.25
2018-09-02T11:49:09.914Z,3.00
2018-09-02T11:51:38.232Z,3.92
2018-09-02T11:54:06.642Z,3.05
2018-09-02T11:56:34.910Z,4.62
2018-09-02T11:59:03.170Z,3.75
2018-09-02T12:01:31.386Z,3.95
2018-09-02T12:03:59.699Z,3.98
2018-09-02T12:06:27.962Z,4.37
2018-09-02T12:08:56.287Z,4.37
2018-09-02T12:11:24.586Z,3.37
2018-09-02T12:13:52.900Z,2.20
2018-09-02T12:16:21.119Z,4.80
2018-09-02T12:18:49.387Z,3.00
2018-09-02T12:21:17.639Z,5.35
2018-09-02T12:23:45.960Z,3.83
2018-09-02T12:26:14.267Z,2.98
2018-09-02T12:28:42.689Z,3.80
2018-09-02T12:31:10.977Z,3.75
2018-09-02T12:33:39.259Z,3.65
2018-09-02T12:36:08.580Z,4.17
2018-09-02T12:38:37.271Z,4.03
2018-09-02T12:41:05.619Z,4.20
2018-09-02T12:43:33.920Z,3.85
2018-09-02T12:46:02.194Z,2.85
2018-09-02T12:48:30.793Z,5.45
2018-09-02T12:50:59.010Z,5.15
2018-09-02T12:53:27.312Z,5.47
2018-09-02T12:55:55.577Z,4.50
2018-09-02T12:58:23.808Z,2.37
2018-09-02T13:00:52.025Z,2.98
2018-09-02T13:03:20.367Z,3.33
2018-09-02T13:05:48.668Z,4.83
2018-09-02T13:08:17.004Z,4.10
2018-09-02T13:10:45.330Z,4.70
2018-09-02T13:13:13.548Z,4.40
2018-09-02T13:15:41.798Z,2.47
2018-09-02T13:18:10.111Z,2.67
2018-09-02T13:20:38.436Z,3.77
2018-09-02T13:23:06.697Z,3.87
2018-09-02T13:25:34.949Z,3.27
2018-09-02T13:28:03.176Z,2.37
2018-09-02T13:30:31.417Z,1.87
2018-09-02T13:32:59.664Z,9.50
2018-09-02T13:35:27.939Z,3.60
2018-09-02T13:37:56.240Z,6.87
2018-09-02T13:40:24.580Z,5.92
2018-09-02T13:42:52.835Z,3.62
2018-09-02T13:45:21.052Z,6.08
2018-09-02T13:47:49.310Z,2.90
2018-09-02T13:50:17.545Z,3.17
2018-09-02T13:52:45.779Z,5.00
2018-09-02T13:55:14.968Z,2.60
2018-09-02T13:57:43.266Z,8.45
2018-09-02T14:00:11.513Z,2.35
2018-09-02T14:02:39.770Z,2.22
2018-09-02T14:05:08.092Z,3.17
2018-09-02T14:07:36.515Z,2.85
2018-09-02T14:10:04.732Z,6.55
2018-09-02T14:12:33.102Z,3.47
2018-09-02T14:15:01.431Z,3.65
2018-09-02T14:17:29.744Z,3.47
2018-09-02T14:19:58.104Z,4.20
2018-09-02T14:22:26.420Z,3.33
2018-09-02T14:24:54.709Z,2.75
2018-09-02T14:27:22.978Z,2.92
2018-09-02T14:29:51.392Z,3.10
2018-09-02T14:32:19.737Z,4.95
2018-09-02T14:34:48.022Z,3.10
2018-09-02T14:37:16.324Z,5.28
2018-09-02T14:39:44.613Z,6.87
2018-09-02T14:42:12.843Z,2.83
2018-09-02T14:44:41.178Z,2.58
2018-09-02T14:47:09.461Z,3.47
2018-09-02T14:49:37.772Z,6.70
2018-09-02T14:52:06.098Z,3.72
2018-09-02T14:54:34.408Z,4.45
2018-09-02T14:57:02.714Z,2.55
2018-09-02T14:59:30.977Z,2.85
2018-09-02T15:01:59.252Z,2.80
2018-09-02T15:04:27.568Z,3.42
2018-09-02T15:06:56.024Z,4.12
2018-09-02T15:09:24.293Z,4.80
2018-09-02T15:11:52.819Z,2.15
2018-09-02T15:14:21.076Z,3.65
2018-09-02T15:16:49.534Z,3.33
2018-09-02T15:19:17.810Z,2.72
2018-09-02T15:21:46.081Z,4.72
2018-09-02T15:24:14.510Z,3.20
2018-09-02T15:26:42.855Z,2.50
2018-09-02T15:29:11.234Z,6.62
2018-09-02T15:31:39.569Z,3.42
2018-09-02T15:34:07.816Z,2.52
2018-09-02T15:36:36.055Z,6.15
2018-09-02T15:39:05.727Z,5.12
2018-09-02T15:41:33.937Z,3.60
2018-09-02T15:44:02.276Z,3.77
2018-09-02T15:46:30.522Z,3.77
2018-09-02T15:48:58.875Z,3.85
2018-09-02T15:51:28.379Z,2.90
2018-09-02T15:53:56.668Z,2.87
2018-09-02T15:56:24.933Z,2.58
2018-09-02T15:58:53.199Z,5.17
2018-09-02T16:01:21.487Z,2.00
2018-09-02T16:03:49.813Z,3.08
2018-09-02T16:06:18.145Z,3.27
2018-09-02T16:08:47.138Z,2.75
2018-09-02T16:11:15.550Z,2.87
2018-09-02T16:13:43.790Z,3.05
2018-09-02T16:16:12.031Z,3.33
2018-09-02T16:18:40.270Z,2.40
2018-09-02T16:21:08.541Z,4.35
2018-09-02T16:23:36.863Z,2.77
2018-09-02T16:26:05.134Z,4.47
2018-09-02T16:28:33.391Z,3.17
2018-09-02T16:31:01.659Z,7.10
2018-09-02T16:33:29.908Z,3.70
2018-09-02T16:35:58.289Z,6.10
2018-09-02T16:38:26.591Z,6.92
2018-09-02T16:40:55.043Z,5.37
2018-09-02T16:43:23.516Z,4.37
2018-09-02T16:45:52.355Z,2.55
2018-09-02T16:48:20.935Z,5.17
2018-09-02T16:50:49.375Z,4.40
2018-09-02T16:53:17.663Z,5.30
2018-09-02T16:55:45.970Z,5.22
2018-09-02T16:58:14.290Z,4.83
2018-09-02T17:00:42.664Z,3.47
2018-09-02T17:03:11.010Z,3.22
2018-09-02T17:05:39.337Z,3.17
2018-09-02T17:08:07.625Z,3.83
2018-09-02T17:10:35.932Z,3.15
2018-09-02T17:13:04.256Z,3.22
2018-09-02T17:15:32.636Z,6.55
2018-09-02T17:18:01.202Z,2.67
2018-09-02T17:20:34.203Z,4.65
2018-09-02T17:23:08.077Z,4.90
2018-09-02T17:25:36.461Z,5.70
2018-09-02T17:28:04.811Z,4.90
2018-09-02T17:30:33.260Z,3.27
2018-09-02T17:33:01.758Z,3.52
2018-09-02T17:35:30.230Z,3.33
2018-09-02T17:37:58.762Z,2.35
2018-09-02T17:40:27.197Z,2.95
2018-09-02T17:42:55.478Z,2.62
2018-09-02T17:45:23.767Z,4.28
2018-09-02T17:47:52.017Z,4.08
2018-09-02T17:50:20.347Z,3.33
2018-09-02T17:52:48.684Z,2.87
2018-09-02T17:55:16.923Z,4.60
2018-09-02T17:57:45.232Z,4.08
2018-09-02T18:00:17.327Z,3.87
2018-09-02T18:02:45.611Z,5.55
2018-09-02T18:05:13.962Z,3.15
2018-09-02T18:07:42.211Z,3.27
2018-09-02T18:10:10.536Z,5.53
2018-09-02T18:12:39.149Z,5.55
2018-09-02T18:15:07.500Z,6.35
2018-09-02T18:17:36.199Z,3.25
2018-09-02T18:20:04.598Z,7.08
2018-09-02T18:22:32.834Z,3.15
2018-09-02T18:25:01.126Z,4.00
2018-09-02T18:27:31.895Z,4.78
2018-09-02T18:30:06.826Z,2.08
2018-09-02T18:32:35.131Z,3.22
2018-09-02T18:35:03.416Z,2.62
2018-09-02T18:37:31.708Z,3.65
2018-09-02T18:39:59.983Z,3.47
2018-09-02T18:42:28.241Z,4.90
2018-09-02T18:44:56.544Z,2.80
2018-09-02T18:47:24.801Z,3.00
2018-09-02T18:49:53.092Z,4.87
2018-09-02T18:52:21.383Z,4.78
2018-09-02T18:54:49.808Z,2.83
2018-09-02T18:57:18.300Z,3.52
2018-09-02T18:59:46.718Z,3.87
2018-09-02T19:02:15.061Z,3.33
2018-09-02T19:04:43.364Z,2.40
2018-09-02T19:07:11.710Z,2.60
2018-09-02T19:09:40.230Z,4.05
2018-09-02T19:12:09.016Z,3.00
2018-09-02T19:14:37.663Z,2.67
2018-09-02T19:17:06.139Z,3.12
2018-09-02T19:19:34.539Z,2.67
2018-09-02T19:22:02.835Z,2.80
2018-09-02T19:24:31.115Z,3.42
2018-09-02T19:26:59.540Z,6.58
2018-09-02T19:29:27.857Z,6.22
2018-09-02T19:31:56.187Z,4.78
2018-09-02T19:34:24.640Z,5.75
2018-09-02T19:36:53.258Z,3.98
2018-09-02T19:39:21.699Z,4.30
2018-09-02T19:41:49.991Z,3.35
2018-09-02T19:44:18.260Z,4.28
2018-09-02T19:46:46.621Z,4.03
2018-09-02T19:49:14.860Z,4.30
2018-09-02T19:51:43.157Z,3.15
2018-09-02T19:54:11.465Z,5.53
2018-09-02T19:56:39.721Z,3.30
2018-09-02T19:59:08.028Z,3.42
2018-09-02T20:01:36.302Z,3.77
2018-09-02T20:04:04.583Z,4.22
2018-09-02T20:06:32.885Z,3.72
2018-09-02T20:09:01.308Z,3.05
2018-09-02T20:11:29.678Z,3.50
2018-09-02T20:13:58.063Z,4.03
2018-09-02T20:16:26.361Z,5.67
2018-09-02T20:18:54.681Z,3.75
2018-09-02T20:21:23.015Z,3.17
2018-09-02T20:23:51.321Z,3.35
2018-09-02T20:26:19.610Z,4.10
2018-09-02T20:28:47.852Z,3.55
2018-09-02T20:31:16.133Z,4.37
2018-09-02T20:33:44.462Z,4.55
2018-09-02T20:36:12.780Z,5.58
2018-09-02T20:38:41.347Z,5.15
2018-09-02T20:41:10.431Z,7.37
2018-09-02T20:43:38.712Z,4.05
2018-09-02T20:46:07.016Z,4.20
2018-09-02T20:48:35.583Z,3.72
2018-09-02T20:51:04.089Z,4.92
2018-09-02T20:53:32.581Z,7.15
2018-09-02T20:56:00.858Z,4.75
2018-09-02T20:58:29.145Z,7.25
2018-09-02T21:00:57.399Z,4.20
2018-09-02T21:03:25.726Z,8.70
2018-09-02T21:05:54.021Z,4.35
2018-09-02T21:08:22.375Z,6.90
2018-09-02T21:10:50.541Z,7.62
2018-09-02T21:13:18.794Z,5.85
2018-09-02T21:15:47.203Z,5.75
2018-09-02T21:18:15.495Z,5.80
2018-09-02T21:20:43.819Z,10.03
2018-09-02T21:23:12.558Z,7.47
2018-09-02T21:25:40.820Z,6.97
2018-09-02T21:28:09.088Z,6.47
2018-09-02T21:30:37.459Z,7.85
2018-09-02T21:33:05.821Z,5.85
2018-09-02T21:35:34.111Z,6.55
2018-09-02T21:38:02.340Z,9.65
2018-09-02T21:40:30.602Z,7.17
2018-09-02T21:42:58.951Z,5.55
2018-09-02T21:45:27.227Z,4.85
2018-09-02T21:47:55.546Z,3.80
2018-09-02T21:50:23.857Z,4.53
2018-09-02T21:52:52.196Z,10.03
2018-09-02T21:55:20.436Z,6.87
2018-09-02T21:57:48.705Z,4.47
2018-09-02T22:00:17.864Z,9.00
2018-09-02T22:02:46.182Z,5.42
2018-09-02T22:05:15.452Z,10.15
2018-09-02T22:07:43.902Z,7.60
2018-09-02T22:10:12.425Z,6.35
2018-09-02T22:12:40.696Z,6.15
2018-09-02T22:15:09.609Z,13.62
2018-09-02T22:17:37.953Z,6.78
2018-09-02T22:20:06.452Z,7.33
2018-09-02T22:22:34.746Z,5.47
2018-09-02T22:25:03.061Z,5.08
2018-09-02T22:27:31.333Z,6.05
2018-09-02T22:29:59.644Z,4.58
2018-09-02T22:32:27.934Z,7.78
2018-09-02T22:34:56.220Z,8.83
2018-09-02T22:37:24.512Z,4.65
2018-09-02T22:39:52.852Z,3.87
2018-09-02T22:42:21.312Z,4.08
2018-09-02T22:44:50.235Z,4.70
2018-09-02T22:47:18.522Z,3.33
2018-09-02T22:49:46.775Z,3.87
2018-09-02T22:52:15.025Z,3.55
2018-09-02T22:54:43.349Z,6.87
2018-09-02T22:57:11.624Z,4.47
2018-09-02T22:59:39.920Z,6.78
2018-09-02T23:02:08.318Z,5.33
2018-09-02T23:04:36.606Z,4.22
2018-09-02T23:07:04.863Z,4.75
2018-09-02T23:09:33.127Z,5.75
2018-09-02T23:12:01.408Z,5.75
2018-09-02T23:14:29.771Z,5.15
2018-09-02T23:16:58.064Z,4.55
2018-09-02T23:19:26.675Z,6.03
2018-09-02T23:21:55.266Z,4.47
2018-09-02T23:24:23.828Z,5.80
2018-09-02T23:26:52.092Z,7.65
2018-09-02T23:29:20.340Z,8.13
2018-09-02T23:31:48.672Z,6.20
2018-09-02T23:34:17.103Z,7.00
2018-09-02T23:36:45.387Z,6.03
2018-09-02T23:39:13.621Z,7.33
2018-09-02T23:41:41.922Z,6.80
2018-09-02T23:44:10.124Z,5.90
2018-09-02T23:46:38.393Z,8.05
2018-09-02T23:49:06.652Z,5.92
2018-09-02T23:51:34.971Z,5.12
2018-09-02T23:54:03.309Z,5.47
2018-09-02T23:56:31.615Z,5.42
2018-09-02T23:58:59.926Z,6.45
